Time;durP1;ratioP1;P1;durP2;ratioP2;P2;SDS_P1;SDS_P2;PMS_P1;PMS_P2;Temp;Humidity;BMP_temperature;BMP_pressure;BME280_temperature;BME280_humidity;BME280_pressure;Samples;Min_cycle;Max_cycle;Signal;HPM_P1;HPM_P2
2022/06/29 00:02:17;;;;;;;3.00;1.40;;;19.20;99.40;;;20.06;99.08;98076.38;4927149;29;20470;-83
2022/06/29 00:04:48;;;;;;;3.73;1.60;;;19.20;99.50;;;20.01;100.00;98078.16;4928601;29;20571;-83
2022/06/29 00:07:18;;;;;;;1.87;1.40;;;19.20;99.60;;;19.98;100.00;98081.31;4930075;29;20469;-83
2022/06/29 00:09:48;;;;;;;1.53;1.30;;;19.20;99.60;;;19.98;100.00;98078.66;4928374;29;20510;-82
2022/06/29 00:12:18;;;;;;;2.13;1.30;;;19.20;99.70;;;19.99;100.00;98075.75;4927295;29;20549;-82
2022/06/29 00:14:48;;;;;;;2.40;1.40;;;19.20;99.40;;;19.99;100.00;98073.09;4926728;29;20467;-83
2022/06/29 00:17:20;;;;;;;9.77;1.50;;;19.20;99.50;;;20.00;100.00;98071.25;4928123;29;20458;-83
2022/06/29 00:19:51;;;;;;;2.50;1.83;;;19.10;99.70;;;19.98;100.00;98071.50;4932994;29;20449;-82
2022/06/29 00:22:20;;;;;;;2.80;1.40;;;19.10;99.70;;;19.99;100.00;98073.09;4931654;29;20543;-83
2022/06/29 00:24:50;;;;;;;1.90;1.30;;;19.10;99.70;;;19.98;100.00;98073.34;4932396;29;20463;-83
2022/06/29 00:27:23;;;;;;;10.73;1.30;;;19.10;99.80;;;19.98;100.00;98068.03;4931468;29;20466;-82
2022/06/29 00:29:53;;;;;;;4.80;1.47;;;19.10;99.80;;;19.96;100.00;98056.84;4933123;29;20469;-83
2022/06/29 00:32:23;;;;;;;3.50;1.37;;;19.10;99.60;;;19.92;100.00;98056.53;4931203;29;20545;-83
2022/06/29 00:34:53;;;;;;;1.87;1.50;;;19.10;99.80;;;19.92;100.00;98050.47;4932932;29;20844;-82
2022/06/29 00:37:22;;;;;;;2.80;1.20;;;19.10;99.70;;;19.93;100.00;98057.34;4931742;29;20808;-83
2022/06/29 00:39:52;;;;;;;1.60;1.10;;;19.10;99.70;;;19.95;100.00;98063.22;4931528;29;20505;-82
2022/06/29 00:42:25;;;;;;;2.60;1.30;;;19.00;99.80;;;19.93;100.00;98058.16;4930568;29;20476;-83
2022/06/29 00:44:55;;;;;;;2.90;1.10;;;19.00;99.90;;;19.95;100.00;98057.94;4931306;29;20450;-83
2022/06/29 00:47:26;;;;;;;2.47;1.20;;;19.10;99.80;;;19.94;100.00;98054.47;4932309;29;20961;-83
2022/06/29 00:49:57;;;;;;;1.40;1.13;;;19.10;99.80;;;19.93;100.00;98058.16;4931960;29;20541;-83
2022/06/29 00:52:30;;;;;;;1.40;1.03;;;19.10;99.90;;;19.96;100.00;98048.88;4930802;29;20486;-83
2022/06/29 00:55:10;;;;;;;2.00;1.30;;;19.00;99.80;;;19.95;100.00;98052.63;4932032;29;20450;-83
2022/06/29 00:57:44;;;;;;;1.60;1.37;;;19.10;99.90;;;19.97;100.00;98053.16;4931833;29;20460;-83
2022/06/29 01:00:14;;;;;;;1.80;1.30;;;19.10;99.90;;;19.97;100.00;98050.50;4931611;29;20469;-83
2022/06/29 01:02:44;;;;;;;7.73;1.40;;;19.10;99.90;;;19.95;100.00;98048.13;4930221;29;20469;-83
2022/06/29 01:05:14;;;;;;;1.30;1.17;;;19.00;99.90;;;19.94;100.00;98056.31;4932416;29;20536;-83
2022/06/29 01:07:45;;;;;;;4.83;1.50;;;19.00;99.90;;;19.92;100.00;98053.88;4931025;29;20483;-82
2022/06/29 01:10:15;;;;;;;2.97;1.27;;;19.00;99.90;;;19.88;100.00;98049.34;4933495;29;20490;-83
2022/06/29 01:12:48;;;;;;;1.60;1.30;;;19.00;99.90;;;19.82;100.00;98047.69;4931770;29;20565;-83
2022/06/29 01:15:18;;;;;;;2.70;1.33;;;19.00;99.90;;;19.80;100.00;98047.09;4931740;29;20957;-83
2022/06/29 01:17:49;;;;;;;1.67;1.47;;;19.00;99.90;;;19.80;100.00;98039.13;4933200;29;20545;-82
2022/06/29 01:20:20;;;;;;;7.03;1.50;;;19.00;99.90;;;19.80;100.00;98039.13;4931295;29;20474;-83
2022/06/29 01:22:52;;;;;;;3.73;1.30;;;18.90;99.80;;;19.78;100.00;98036.75;4931261;29;20938;-83
2022/06/29 01:25:21;;;;;;;3.13;1.23;;;18.90;99.90;;;19.76;100.00;98036.19;4931254;29;20470;-83
2022/06/29 01:27:51;;;;;;;1.47;1.30;;;18.90;99.90;;;19.76;100.00;98038.81;4931821;29;20517;-83
2022/06/29 01:30:21;;;;;;;2.87;1.40;;;18.90;99.90;;;19.72;100.00;98037.72;4930503;29;20469;-83
2022/06/29 01:32:51;;;;;;;2.50;1.63;;;18.90;99.90;;;19.72;100.00;98037.72;4929475;29;21230;-83
2022/06/29 01:35:23;;;;;;;2.90;1.63;;;18.90;99.90;;;19.71;100.00;98036.13;4929787;29;20513;-83
2022/06/29 01:37:55;;;;;;;2.00;1.50;;;18.80;99.90;;;19.69;100.00;98032.91;4931585;29;20484;-83
2022/06/29 01:40:26;;;;;;;3.13;1.63;;;18.90;99.90;;;19.67;100.00;98029.69;4931466;29;21022;-83
2022/06/29 01:42:58;;;;;;;2.43;1.30;;;18.90;99.90;;;19.67;100.00;98026.25;4931463;29;20485;-82
2022/06/29 01:45:30;;;;;;;2.00;1.20;;;18.80;99.90;;;19.67;100.00;98031.53;4932265;29;20439;-82
2022/06/29 01:48:01;;;;;;;1.73;1.17;;;18.80;99.90;;;19.66;100.00;98033.38;4930122;29;20490;-83
2022/06/29 01:50:32;;;;;;;1.43;1.30;;;18.80;99.90;;;19.68;100.00;98025.19;4931715;29;20447;-83
2022/06/29 01:53:02;;;;;;;1.93;1.20;;;18.80;99.90;;;19.71;100.00;98024.69;4931267;29;20494;-82
2022/06/29 01:55:33;;;;;;;1.50;1.40;;;18.70;99.90;;;19.66;100.00;98021.97;4931986;29;20466;-83
2022/06/29 01:58:03;;;;;;;4.00;1.60;;;18.80;99.90;;;19.64;100.00;98018.78;4929787;29;20471;-83
2022/06/29 02:00:33;;;;;;;1.40;1.10;;;18.70;99.90;;;19.63;100.00;98017.97;4929211;29;20489;-83
2022/06/29 02:03:04;;;;;;;1.73;1.53;;;18.80;99.90;;;19.63;100.00;98012.66;4932246;29;20490;-82
2022/06/29 02:05:34;;;;;;;2.30;1.37;;;18.80;99.90;;;19.62;100.00;98015.53;4931170;29;20477;-83
2022/06/29 02:08:06;;;;;;;2.40;1.40;;;18.70;99.90;;;19.64;100.00;98000.19;4930916;29;20854;-83
2022/06/29 02:10:37;;;;;;;1.63;1.27;;;18.70;99.90;;;19.63;100.00;98003.88;4930973;29;20474;-83
2022/06/29 02:13:08;;;;;;;11.27;1.47;;;18.70;99.90;;;19.63;100.00;98001.25;4931041;29;20486;-83
2022/06/29 02:15:38;;;;;;;1.30;1.10;;;18.70;99.90;;;19.61;100.00;97992.72;4929695;29;20455;-83
2022/06/29 02:18:10;;;;;;;3.20;1.17;;;18.70;99.90;;;19.60;100.00;97989.28;4930378;29;20458;-83
2022/06/29 02:20:39;;;;;;;2.70;1.43;;;18.70;99.90;;;19.60;100.00;97991.94;4929795;29;20485;-83
2022/06/29 02:23:10;;;;;;;4.10;1.67;;;18.70;99.90;;;19.61;100.00;97987.44;4930475;29;20490;-83
2022/06/29 02:25:39;;;;;;;3.33;1.47;;;18.70;99.90;;;19.61;100.00;97987.44;4932172;29;20483;-83
2022/06/29 02:28:09;;;;;;;1.63;1.10;;;18.60;99.90;;;19.58;100.00;97978.91;4930740;29;20459;-83
2022/06/29 02:36:13;;;;;;;1.60;1.20;;;18.60;99.90;;;19.55;100.00;97968.78;4932672;29;20506;-83
2022/06/29 02:38:45;;;;;;;4.50;1.07;;;18.60;99.90;;;19.53;100.00;97962.94;4929695;29;20468;-83
2022/06/29 02:41:15;;;;;;;2.30;1.30;;;18.60;99.90;;;19.53;100.00;97964.78;4929749;29;20482;-82
2022/06/29 02:43:46;;;;;;;1.83;1.23;;;18.60;99.90;;;19.50;100.00;97968.72;4931357;29;20458;-83
2022/06/29 02:46:18;;;;;;;1.63;1.10;;;18.60;99.90;;;19.48;100.00;97968.16;4930357;29;20470;-83
2022/06/29 02:48:48;;;;;;;1.57;1.30;;;18.60;99.90;;;19.47;100.00;97966.53;4929584;29;21049;-82
2022/06/29 02:51:18;;;;;;;3.00;1.70;;;18.50;99.90;;;19.47;100.00;97963.09;4927973;29;20506;-84
2022/06/29 02:53:50;;;;;;;2.13;1.53;;;18.60;99.90;;;19.46;100.00;97970.25;4931159;29;20482;-83
2022/06/29 02:56:19;;;;;;;5.73;1.50;;;18.60;99.90;;;19.46;100.00;97967.59;4931091;29;20455;-83
2022/06/29 02:58:49;;;;;;;1.43;1.20;;;18.50;99.90;;;19.42;100.00;97969.13;4928871;29;20454;-83
2022/06/29 03:01:18;;;;;;;2.43;1.10;;;18.50;99.90;;;19.44;100.00;97969.69;4929886;29;20481;-83
2022/06/29 03:03:48;;;;;;;1.37;1.13;;;18.50;99.90;;;19.41;100.00;97964.06;4913337;29;20462;-83
2022/06/29 03:06:17;;;;;;;1.67;1.27;;;18.50;99.90;;;19.40;100.00;97955.28;4928965;29;20578;-83
2022/06/29 03:08:46;;;;;;;1.63;1.20;;;18.50;99.90;;;19.41;100.00;97956.09;4926372;29;21735;-83
2022/06/29 03:11:17;;;;;;;3.73;1.40;;;18.50;99.90;;;19.40;100.00;97965.09;4930334;29;20489;-87
2022/06/29 03:13:48;;;;;;;3.60;1.47;;;18.50;99.90;;;19.39;100.00;97969.59;4927087;29;20511;-84
2022/06/29 03:16:18;;;;;;;2.03;1.20;;;18.40;99.90;;;19.40;100.00;97962.47;4927545;29;20458;-84
2022/06/29 03:18:50;;;;;;;1.40;1.10;;;18.50;99.90;;;19.39;100.00;97963.50;4925471;29;20531;-84
2022/06/29 03:21:20;;;;;;;19.73;8.73;;;18.40;99.90;;;19.34;100.00;97961.56;4929452;29;20470;-86
2022/06/29 03:23:50;;;;;;;4.53;1.87;;;18.50;99.90;;;19.33;100.00;97959.94;4928339;29;20889;-83
2022/06/29 03:26:21;;;;;;;3.07;1.50;;;18.50;99.90;;;19.35;100.00;97967.69;4927694;29;20853;-82
2022/06/29 03:28:56;;;;;;;4.80;2.80;;;18.50;99.90;;;19.33;100.00;97967.13;4925023;29;20505;-86
2022/06/29 03:31:26;;;;;;;4.20;1.77;;;18.50;99.90;;;19.33;100.00;97965.25;4928971;29;20478;-84
2022/06/29 03:33:58;;;;;;;3.33;1.50;;;18.50;99.90;;;19.34;100.00;97963.41;4928414;29;20545;-83
2022/06/29 03:36:29;;;;;;;3.00;1.60;;;18.40;99.90;;;19.35;100.00;97965.84;4929728;29;20498;-84
2022/06/29 03:39:00;;;;;;;2.67;1.50;;;18.40;99.90;;;19.36;100.00;97956.84;4929004;29;20474;-83
2022/06/29 03:41:32;;;;;;;2.53;1.30;;;18.40;99.90;;;19.35;100.00;97967.69;4929444;29;20486;-83
2022/06/29 03:44:01;;;;;;;4.40;1.50;;;18.40;99.90;;;19.32;100.00;97968.16;4928115;29;20478;-83
2022/06/29 03:46:31;;;;;;;1.60;1.10;;;18.50;99.90;;;19.31;100.00;97955.94;4930595;29;20447;-83
2022/06/29 03:49:01;;;;;;;2.00;1.30;;;18.40;99.90;;;19.29;100.00;97972.13;4927806;29;20502;-83
2022/06/29 03:51:31;;;;;;;4.37;1.90;;;18.40;99.90;;;19.26;100.00;97969.97;4927333;29;20462;-83
2022/06/29 03:54:01;;;;;;;2.90;1.60;;;18.50;99.90;;;19.25;100.00;97963.03;4928551;29;20985;-83
2022/06/29 03:56:33;;;;;;;6.80;1.63;;;18.40;99.90;;;19.24;100.00;97961.44;4929561;29;20972;-83
2022/06/29 03:59:02;;;;;;;1.33;1.20;;;18.40;99.90;;;19.28;100.00;97964.41;4930708;29;20459;-83
2022/06/29 04:01:32;;;;;;;3.83;2.13;;;18.40;99.90;;;19.26;100.00;97972.63;4930029;29;20466;-85
2022/06/29 04:04:01;;;;;;;3.13;1.60;;;18.40;99.90;;;19.24;100.00;97961.44;4928394;29;21164;-82
2022/06/29 04:06:31;;;;;;;1.30;1.20;;;18.40;99.90;;;19.27;100.00;97960.13;4929134;29;21583;-83
2022/06/29 04:09:01;;;;;;;1.60;1.43;;;18.40;99.90;;;19.30;100.00;97959.66;4929723;29;20522;-83
2022/06/29 04:11:54;;;;;;;2.03;1.33;;;18.40;99.90;;;19.26;100.00;97959.34;4928662;29;20521;-83
2022/06/29 04:14:25;;;;;;;6.85;1.70;;;18.40;99.90;;;19.28;100.00;97959.09;4927788;29;20473;-83
2022/06/29 04:16:58;;;;;;;5.27;1.70;;;18.40;99.90;;;19.31;100.00;97959.41;4931682;29;20207;-83
2022/06/29 04:19:29;;;;;;;3.93;1.30;;;18.40;99.90;;;19.31;100.00;97956.75;4931188;29;20450;-83
2022/06/29 04:21:59;;;;;;;1.50;1.23;;;18.40;99.90;;;19.32;100.00;97953.06;4930871;29;20465;-83
2022/06/29 04:24:30;;;;;;;1.93;1.10;;;18.40;99.90;;;19.32;100.00;97958.38;4930109;29;20450;-83
2022/06/29 04:27:01;;;;;;;4.33;1.27;;;18.40;99.90;;;19.32;100.00;97958.38;4930759;29;21056;-83
2022/06/29 04:29:31;;;;;;;2.40;1.40;;;18.40;99.90;;;19.29;100.00;97964.16;4932016;29;20502;-83
2022/06/29 04:32:02;;;;;;;2.37;1.60;;;18.40;99.90;;;19.24;100.00;97966.72;4930645;29;20462;-83
2022/06/29 04:34:32;;;;;;;2.10;1.50;;;18.50;99.90;;;19.25;100.00;97963.03;4931024;29;20849;-83
2022/06/29 04:37:04;;;;;;;1.70;1.30;;;18.40;99.90;;;19.22;100.00;97958.22;4930315;29;20470;-83
2022/06/29 04:39:34;;;;;;;6.40;1.40;;;18.50;99.90;;;19.22;100.00;97957.44;4930257;29;20473;-83
2022/06/29 04:42:06;;;;;;;2.43;1.17;;;18.50;99.90;;;19.21;100.00;97961.13;4929611;29;20471;-83
2022/06/29 04:44:37;;;;;;;1.93;1.60;;;18.50;99.90;;;19.21;100.00;97953.16;4929922;29;20553;-83
2022/06/29 04:47:06;;;;;;;2.53;1.60;;;18.50;99.90;;;19.23;100.00;97959.03;4931721;29;20462;-83
2022/06/29 04:49:37;;;;;;;5.27;1.43;;;18.40;99.90;;;19.26;100.00;97955.91;4931560;29;20450;-83
2022/06/29 04:52:08;;;;;;;3.40;1.63;;;18.30;99.90;;;19.29;100.00;97952.75;4928129;29;20467;-83
2022/06/29 04:54:39;;;;;;;2.23;1.50;;;18.30;99.90;;;19.28;100.00;97951.94;4930861;29;20484;-84
2022/06/29 04:57:11;;;;;;;3.43;1.80;;;18.40;99.90;;;19.29;100.00;97956.22;4930512;29;20467;-84
2022/06/29 04:59:42;;;;;;;2.23;1.33;;;18.40;99.90;;;19.29;100.00;97953.56;4930962;29;20458;-83
2022/06/29 05:02:14;;;;;;;1.77;1.33;;;18.40;99.90;;;19.27;100.00;97949.53;4931617;29;20462;-83
2022/06/29 05:04:44;;;;;;;3.40;1.37;;;18.40;99.90;;;19.29;100.00;97948.25;4933963;29;20477;-83
2022/06/29 05:07:15;;;;;;;1.93;1.47;;;18.40;99.90;;;19.29;100.00;97942.94;4934386;29;20545;-83
2022/06/29 05:09:50;;;;;;;1.30;1.20;;;18.40;99.90;;;19.30;100.00;97944.53;4933790;29;20481;-83
2022/06/29 05:12:20;;;;;;;2.57;1.50;;;18.40;99.90;;;19.33;100.00;97946.69;4931967;29;20467;-83
2022/06/29 05:14:51;;;;;;;2.30;1.30;;;18.40;99.90;;;19.34;100.00;97939.53;4932654;29;20525;-83
2022/06/29 05:17:21;;;;;;;1.77;1.63;;;18.40;99.90;;;19.35;100.00;97936.66;4934185;29;20916;-83
2022/06/29 05:19:52;;;;;;;2.30;1.50;;;18.40;99.90;;;19.36;100.00;97940.94;4934026;29;20522;-83
2022/06/29 05:22:24;;;;;;;2.27;1.50;;;18.50;99.90;;;19.36;100.00;97932.97;4932696;29;20471;-83
2022/06/29 05:24:54;;;;;;;3.10;1.40;;;18.50;99.90;;;19.34;100.00;97935.03;4931037;29;20486;-83
2022/06/29 05:27:26;;;;;;;2.30;1.40;;;18.50;99.90;;;19.36;100.00;97932.97;4934297;29;20458;-83
2022/06/29 05:29:56;;;;;;;2.60;1.57;;;18.50;99.90;;;19.35;100.00;97941.16;4933148;29;20470;-83
2022/06/29 05:32:25;;;;;;;1.53;1.40;;;18.60;99.90;;;19.35;100.00;97941.16;4932419;29;20482;-83
2022/06/29 05:34:55;;;;;;;1.60;1.40;;;18.60;99.90;;;19.35;100.00;97936.66;4932527;29;20505;-83
2022/06/29 05:37:25;;;;;;;4.97;1.40;;;18.50;99.90;;;19.37;100.00;97933.75;4931671;29;20996;-83
2022/06/29 05:39:57;;;;;;;2.30;1.30;;;18.50;99.90;;;19.38;100.00;97936.16;4933324;29;21072;-83
2022/06/29 05:42:29;;;;;;;2.07;1.50;;;18.60;99.90;;;19.39;100.00;97937.78;4933042;29;20463;-84
2022/06/29 05:44:59;;;;;;;2.10;1.57;;;18.60;99.90;;;19.39;100.00;97936.97;4931628;29;20518;-83
2022/06/29 05:47:31;;;;;;;6.30;1.33;;;18.60;99.90;;;19.43;100.00;97940.78;4932760;29;20463;-83
2022/06/29 05:50:01;;;;;;;2.77;1.50;;;18.60;99.90;;;19.45;100.00;97931.50;4933719;29;20473;-83
2022/06/29 05:52:32;;;;;;;1.67;1.40;;;18.60;99.90;;;19.48;100.00;97935.50;4933659;29;20454;-84
2022/06/29 05:55:03;;;;;;;1.97;1.10;;;18.60;99.90;;;19.50;100.00;97928.94;4933534;29;20601;-83
2022/06/29 05:57:34;;;;;;;1.97;1.37;;;18.70;99.90;;;19.54;100.00;97930.03;4933017;29;20535;-83
2022/06/29 06:00:10;;;;;;;3.03;1.70;;;18.70;99.90;;;19.59;100.00;97927.44;4932191;29;20463;-82
2022/06/29 06:02:40;;;;;;;3.87;1.40;;;18.70;99.90;;;19.64;100.00;97925.91;4932417;29;20446;-83
2022/06/29 06:05:11;;;;;;;2.20;1.53;;;18.70;99.90;;;19.68;100.00;97924.38;4931618;29;21004;-83
2022/06/29 06:07:41;;;;;;;2.20;1.50;;;18.70;99.90;;;19.73;100.00;97921.75;4931329;29;20487;-82
2022/06/29 06:10:11;;;;;;;2.60;1.60;;;18.70;99.90;;;19.76;100.00;97922.06;4931912;29;20557;-83
2022/06/29 06:12:44;;;;;;;1.40;1.23;;;18.90;99.90;;;19.80;100.00;97922.38;4933606;29;20502;-82
2022/06/29 06:15:15;;;;;;;4.90;1.50;;;18.90;99.90;;;19.85;100.00;97923.25;4932772;29;20945;-83
2022/06/29 06:17:45;;;;;;;7.33;1.37;;;19.00;99.90;;;19.91;100.00;97926.72;4932511;29;20457;-83
2022/06/29 06:20:14;;;;;;;9.50;2.87;;;19.00;99.90;;;19.95;100.00;97935.81;4932214;29;20546;-82
2022/06/29 06:22:45;;;;;;;2.10;1.37;;;19.20;99.90;;;19.99;100.00;97931.59;4932010;29;20881;-81
2022/06/29 06:25:16;;;;;;;2.00;1.37;;;19.20;99.90;;;20.02;100.00;97937.22;4930787;29;20472;-81
2022/06/29 06:27:48;;;;;;;2.30;1.60;;;19.20;99.90;;;20.08;100.00;97932.75;4932404;29;20731;-82
2022/06/29 06:30:18;;;;;;;4.13;1.77;;;19.30;99.90;;;20.13;100.00;97932.81;4932029;29;20499;-82
2022/06/29 06:32:47;;;;;;;1.83;1.40;;;19.30;99.90;;;20.18;100.00;97932.03;4932110;29;21000;-82
2022/06/29 06:35:19;;;;;;;1.50;1.30;;;19.40;99.90;;;20.23;100.00;97932.91;4931458;29;20505;-82
2022/06/29 06:37:48;;;;;;;1.93;1.50;;;19.40;99.90;;;20.30;100.00;97932.75;4930755;29;20474;-81
2022/06/29 06:43:08;;;;;;;2.10;1.23;;;19.50;99.90;;;20.41;100.00;97940.53;4931383;29;20489;-82
2022/06/29 06:45:38;;;;;;;1.30;1.20;;;19.60;99.90;;;20.45;100.00;97946.94;4931387;29;20973;-82
2022/06/29 06:48:10;;;;;;;1.90;1.37;;;19.70;99.90;;;20.49;100.00;97945.38;4931275;29;20467;-81
2022/06/29 06:50:40;;;;;;;3.50;1.80;;;19.70;99.90;;;20.53;98.95;97946.50;4932205;29;20458;-81
2022/06/29 06:53:17;;;;;;;1.50;1.27;;;19.80;99.90;;;20.57;97.99;97944.94;4931309;29;20977;-81
2022/06/29 06:55:47;;;;;;;2.50;1.70;;;19.90;99.90;;;20.62;98.50;97949.47;4931732;29;20509;-82
2022/06/29 06:58:19;;;;;;;2.23;1.53;;;19.90;99.90;;;20.66;98.62;97937.28;4931797;29;20501;-82
2022/06/29 07:00:49;;;;;;;2.30;1.50;;;19.90;99.90;;;20.71;98.19;97939.19;4931918;29;20937;-81
2022/06/29 07:03:19;;;;;;;1.40;1.20;;;19.90;99.90;;;20.76;98.54;97936.56;4930453;29;20505;-82
2022/06/29 07:05:50;;;;;;;3.23;1.63;;;20.00;99.90;;;20.82;99.06;97935.56;4931795;29;20459;-82
2022/06/29 07:08:21;;;;;;;1.93;1.40;;;20.00;99.90;;;20.88;98.47;97931.88;4932219;29;20926;-82
2022/06/29 07:10:51;;;;;;;1.80;1.40;;;20.00;99.90;;;20.94;98.16;97938.81;4929986;29;20466;-82
2022/06/29 07:13:22;;;;;;;5.10;1.93;;;20.10;99.90;;;20.99;97.66;97941.53;4930657;29;20494;-81
2022/06/29 07:15:52;;;;;;;3.57;1.67;;;20.10;99.70;;;21.05;97.32;97937.81;4929563;29;20486;-82
2022/06/29 07:18:21;;;;;;;1.30;1.10;;;20.20;99.80;;;21.09;96.50;97937.06;4930588;29;20467;-82
2022/06/29 07:20:52;;;;;;;2.53;1.43;;;20.20;99.50;;;21.16;96.36;97936.88;4931297;29;20494;-82
2022/06/29 07:23:21;;;;;;;2.50;1.67;;;20.30;99.80;;;21.21;95.50;97928.91;4931825;29;20469;-81
2022/06/29 07:25:51;;;;;;;1.90;1.50;;;20.40;99.60;;;21.28;95.25;97929.47;4929935;29;20471;-82
2022/06/29 07:28:24;;;;;;;2.93;1.70;;;20.40;99.50;;;21.33;95.44;97926.84;4931513;29;20438;-81
2022/06/29 07:30:54;;;;;;;2.40;1.50;;;20.50;99.90;;;21.40;94.90;97927.41;4931487;29;20812;-81
2022/06/29 07:33:24;;;;;;;3.47;1.50;;;20.60;99.60;;;21.47;94.08;97932.50;4930661;29;20459;-82
2022/06/29 07:35:53;;;;;;;1.83;1.53;;;20.60;99.70;;;21.54;93.90;97933.88;4930911;29;21292;-81
2022/06/29 07:38:23;;;;;;;2.10;1.90;;;20.70;99.10;;;21.60;90.67;97926.69;4931377;29;20545;-82
2022/06/29 07:40:52;;;;;;;4.83;1.57;;;20.70;97.80;;;21.65;87.98;97926.72;4930985;29;20459;-83
2022/06/29 07:43:23;;;;;;;3.60;2.00;;;20.80;97.70;;;21.69;85.03;97925.16;4930466;29;20463;-82
2022/06/29 07:45:55;;;;;;;5.87;1.70;;;20.90;97.30;;;21.74;83.07;97919.81;4930454;29;20462;-81
2022/06/29 07:48:25;;;;;;;1.60;1.50;;;21.00;96.40;;;21.81;82.35;97923.03;4932543;29;20470;-82
2022/06/29 07:50:55;;;;;;;2.20;1.87;;;21.00;96.80;;;21.90;82.17;97932.16;4931442;29;20866;-82
2022/06/29 07:53:26;;;;;;;5.53;1.80;;;21.10;97.00;;;21.93;81.44;97931.66;4930557;29;20459;-82
2022/06/29 07:55:57;;;;;;;2.80;1.70;;;21.20;97.00;;;21.97;83.73;97923.94;4929207;29;20589;-82
2022/06/29 07:58:27;;;;;;;2.40;1.80;;;21.30;97.30;;;22.01;81.23;97927.66;4930421;29;20985;-81
2022/06/29 08:00:57;;;;;;;1.63;1.50;;;21.30;96.60;;;22.01;80.84;97928.44;4931768;29;20471;-81
2022/06/29 08:03:28;;;;;;;4.37;1.70;;;21.20;96.60;;;22.10;81.19;97926.09;4930088;29;20543;-82
2022/06/29 08:05:59;;;;;;;2.63;1.83;;;21.30;96.80;;;22.17;81.17;97931.97;4929729;29;20822;-81
2022/06/29 08:08:29;;;;;;;3.37;1.90;;;21.40;97.00;;;22.23;82.54;97933.56;4929806;29;20474;-82
2022/06/29 08:10:59;;;;;;;2.50;2.13;;;21.50;97.40;;;22.30;82.10;97925.31;4929301;29;20932;-82
2022/06/29 08:13:30;;;;;;;2.40;1.90;;;21.40;97.10;;;22.32;79.92;97929.28;4929786;29;20473;-82
2022/06/29 08:16:00;;;;;;;2.87;1.63;;;21.50;95.80;;;22.36;77.72;97929.56;4930551;29;20462;-82
2022/06/29 08:18:32;;;;;;;11.13;2.07;;;21.50;95.60;;;22.40;77.42;97933.31;4930005;29;20448;-82
2022/06/29 08:21:02;;;;;;;5.40;1.97;;;21.60;95.80;;;22.43;76.12;97930.91;4930304;29;20490;-82
2022/06/29 08:23:33;;;;;;;2.60;1.90;;;21.60;95.60;;;22.49;76.54;97934.41;4930175;29;20470;-82
2022/06/29 08:26:02;;;;;;;2.30;1.67;;;21.60;96.00;;;22.49;76.10;97932.50;4930383;29;20465;-82
2022/06/29 08:28:53;;;;;;;3.40;1.70;;;21.50;95.40;;;22.57;75.66;97937.31;4928728;29;20534;-81
2022/06/29 08:31:23;;;;;;;2.30;1.53;;;21.70;95.70;;;22.63;76.75;97940.78;4929831;29;20478;-81
2022/06/29 08:33:55;;;;;;;3.53;1.87;;;21.90;96.10;;;22.65;77.10;97932.50;4930680;29;20557;-82
2022/06/29 08:36:25;;;;;;;4.20;1.90;;;21.90;96.10;;;22.69;76.65;97925.63;4931365;29;20565;-82
2022/06/29 08:39:16;;;;;;;3.30;1.37;;;21.90;95.90;;;22.73;77.86;97935.50;4931674;29;20557;-82
2022/06/29 08:41:46;;;;;;;4.53;1.90;;;21.90;96.60;;;22.75;76.66;97927.22;4932388;29;20473;-82
2022/06/29 08:44:18;;;;;;;7.37;2.30;;;21.90;95.40;;;22.79;75.46;97925.59;4933014;29;20466;-82
2022/06/29 08:46:48;;;;;;;1.83;1.60;;;21.90;95.60;;;22.81;75.96;97923.47;4932997;29;20478;-82
2022/06/29 08:49:19;;;;;;;3.07;1.83;;;22.00;95.90;;;22.83;75.26;97929.34;4934377;29;20451;-82
2022/06/29 08:51:52;;;;;;;3.17;1.80;;;22.00;95.40;;;22.89;74.39;97928.25;4932934;29;21038;-82
2022/06/29 08:54:24;;;;;;;7.83;2.37;;;22.00;95.10;;;22.96;73.97;97924.25;4933355;29;20473;-82
2022/06/29 08:56:58;;;;;;;2.10;1.77;;;22.10;95.40;;;23.02;73.10;97922.38;4933872;29;20506;-82
2022/06/29 08:59:31;;;;;;;2.20;1.83;;;22.20;94.80;;;23.08;72.86;97923.19;4933350;29;20957;-82
2022/06/29 09:02:22;;;;;;;2.90;1.90;;;22.20;95.50;;;23.12;73.36;97918.91;4932480;29;20546;-82
2022/06/29 09:04:53;;;;;;;6.47;2.10;;;22.20;95.40;;;23.16;72.71;97919.94;4934195;29;20489;-82
2022/06/29 09:07:28;;;;;;;2.80;1.80;;;22.30;95.10;;;23.22;73.25;97921.53;4932888;29;20554;-82
2022/06/29 09:10:00;;;;;;;2.33;1.80;;;22.40;95.50;;;23.27;73.66;97924.97;4932449;29;20502;-81
2022/06/29 09:12:31;;;;;;;2.53;1.90;;;22.50;95.30;;;23.33;73.94;97926.56;4932505;29;20493;-81
2022/06/29 09:15:06;;;;;;;2.90;1.90;;;22.60;95.60;;;23.38;73.44;97931.91;4933629;29;20446;-82
2022/06/29 09:17:39;;;;;;;1.87;1.70;;;22.60;95.30;;;23.45;71.74;97929.78;4932897;29;20502;-81
2022/06/29 09:20:14;;;;;;;5.93;2.00;;;22.70;94.80;;;23.53;74.33;97923.84;4932942;29;20459;-82
2022/06/29 09:23:02;;;;;;;2.23;2.00;;;22.80;95.80;;;23.54;70.33;97925.44;4933512;29;20446;-82
2022/06/29 09:25:33;;;;;;;3.77;2.00;;;22.90;94.50;;;23.61;69.94;97929.69;4933198;29;20941;-82
2022/06/29 09:28:02;;;;;;;1.70;1.50;;;23.00;94.60;;;23.62;67.59;97932.09;4933609;29;20465;-82
2022/06/29 09:30:40;;;;;;;2.20;1.80;;;23.00;94.00;;;23.72;70.13;97936.59;4933581;29;20458;-82
2022/06/29 09:33:09;;;;;;;3.20;2.00;;;23.00;94.70;;;23.69;67.95;97927.25;4930719;29;20558;-82
2022/06/29 09:35:40;;;;;;;2.27;1.60;;;23.10;94.00;;;23.74;68.27;97926.44;4932563;29;20933;-82
2022/06/29 09:38:23;;;;;;;2.13;1.80;;;23.10;94.10;;;23.82;68.68;97926.66;4933120;29;20482;-82
2022/06/29 09:41:04;;;;;;;4.23;1.97;;;23.00;94.40;;;23.90;69.24;97922.63;4931481;29;20501;-82
2022/06/29 09:43:35;;;;;;;3.13;1.67;;;23.20;94.50;;;23.92;67.86;97920.47;4932395;29;20455;-82
2022/06/29 09:46:08;;;;;;;5.37;1.70;;;23.10;93.80;;;24.00;67.91;97922.56;4932355;29;20818;-82
2022/06/29 09:48:40;;;;;;;2.23;1.80;;;23.10;94.00;;;24.06;67.15;97918.78;4933328;29;20455;-82
2022/06/29 09:54:02;;;;;;;2.97;1.90;;;23.20;93.80;;;24.17;66.36;97911.53;4931036;29;20550;-81
2022/06/29 09:56:33;;;;;;;2.90;1.80;;;23.30;94.10;;;24.20;66.28;97918.97;4933654;29;20451;-81
2022/06/29 09:59:06;;;;;;;6.50;2.27;;;23.40;94.00;;;24.22;64.00;97912.31;4932268;29;20470;-83
2022/06/29 10:04:26;;;;;;;2.90;1.93;;;23.30;93.00;;;24.28;64.05;97913.84;4932057;29;20475;-81
2022/06/29 10:06:57;;;;;;;7.60;2.13;;;23.40;93.70;;;24.36;65.32;97915.94;4932794;29;20954;-82
2022/06/29 10:09:26;;;;;;;2.63;1.70;;;23.50;93.80;;;24.42;63.77;97914.03;4930275;29;20481;-83
2022/06/29 10:15:11;;;;;;;1.97;1.50;;;23.90;92.90;;;24.49;61.01;97912.63;4932573;29;20533;-82
2022/06/29 10:17:56;;;;;;;2.23;1.63;;;23.80;92.10;;;24.57;60.35;97913.09;4933008;29;20889;-82
2022/06/29 10:20:45;;;;;;;3.80;1.63;;;23.90;92.20;;;24.63;60.15;97909.31;4932632;29;20457;-82
2022/06/29 10:23:49;;;;;;;2.80;1.80;;;23.90;92.30;;;24.68;58.89;97911.94;4930574;29;20521;-82
2022/06/29 10:26:47;;;;;;;2.30;1.80;;;23.90;92.10;;;24.75;60.68;97907.06;4932396;29;20476;-82
2022/06/29 10:29:47;;;;;;;2.10;1.67;;;24.00;92.70;;;24.81;59.01;97905.94;4932783;29;20498;-82
2022/06/29 10:32:22;;;;;;;2.23;1.80;;;24.20;91.80;;;24.88;59.58;97901.88;4908617;29;20468;-82
2022/06/29 10:35:07;;;;;;;11.93;1.93;;;24.20;92.40;;;24.90;60.24;97902.41;4928903;29;20455;-82
2022/06/29 10:37:52;;;;;;;2.63;2.10;;;24.30;92.50;;;24.96;60.67;97903.13;4931523;29;20589;-82
2022/06/29 10:40:24;;;;;;;2.00;1.80;;;24.30;92.60;;;24.98;59.91;97903.66;4930643;29;20514;-82
2022/06/29 10:43:08;;;;;;;5.83;1.90;;;24.30;92.00;;;24.94;57.37;97899.94;4931104;29;20463;-82
2022/06/29 10:45:46;;;;;;;1.73;1.50;;;24.40;91.50;;;24.98;58.16;97899.13;4931512;29;20446;-82
2022/06/29 10:48:20;;;;;;;2.27;1.60;;;24.30;91.90;;;25.05;58.45;97893.41;4932626;29;21141;-82
2022/06/29 10:50:52;;;;;;;3.63;1.73;;;24.30;91.80;;;25.15;58.58;97900.53;4931393;29;20856;-82
2022/06/29 10:53:22;;;;;;;3.07;1.73;;;24.40;92.00;;;25.21;61.05;97896.72;4929866;29;20514;-82